createdAt,value
2019-03-06T00:02:09.410Z,96789.48
2019-03-06T00:07:05.750Z,96788.08
2019-03-06T00:12:02.514Z,96777.58
2019-03-06T00:16:59.426Z,96772.26
2019-03-06T00:21:55.622Z,96760.95
2019-03-06T00:26:51.723Z,96760.89
2019-03-06T00:31:47.798Z,96758.80
2019-03-06T00:36:43.766Z,96751.73
2019-03-06T00:41:48.030Z,96749.83
2019-03-06T00:46:43.987Z,96756.59
2019-03-06T00:51:39.863Z,96749.84
2019-03-06T00:56:36.059Z,96733.09
2019-03-06T01:01:31.958Z,96736.49
2019-03-06T01:06:29.600Z,96750.27
2019-03-06T01:11:25.382Z,96745.06
2019-03-06T01:16:21.269Z,96739.25
2019-03-06T01:21:17.393Z,96732.52
2019-03-06T01:26:14.622Z,96727.04
2019-03-06T01:31:10.441Z,96727.16
2019-03-06T01:36:16.066Z,96716.30
2019-03-06T01:41:45.916Z,96705.12
2019-03-06T01:46:41.782Z,96703.39
2019-03-06T01:51:37.721Z,96706.42
2019-03-06T01:56:33.527Z,96691.95
2019-03-06T02:01:29.671Z,96689.59
2019-03-06T02:06:25.625Z,96691.54
2019-03-06T02:11:21.531Z,96675.52
2019-03-06T02:16:17.633Z,96666.40
2019-03-06T02:21:13.462Z,96662.19
2019-03-06T02:26:09.251Z,96649.25
2019-03-06T02:31:06.882Z,96639.97
2019-03-06T02:36:02.748Z,96639.87
2019-03-06T02:40:58.559Z,96632.20
2019-03-06T02:45:57.083Z,96627.42
2019-03-06T02:50:53.015Z,96616.34
2019-03-06T02:55:50.144Z,96612.73
2019-03-06T03:01:17.397Z,96603.53
2019-03-06T03:06:22.357Z,96594.92
2019-03-06T03:11:18.185Z,96584.74
2019-03-06T03:16:15.367Z,96581.55
2019-03-06T03:21:11.377Z,96591.25
2019-03-06T03:26:07.256Z,96596.34
2019-03-06T03:31:03.193Z,96593.14
2019-03-06T03:35:58.990Z,96599.00
2019-03-06T03:40:54.835Z,96608.13
2019-03-06T03:45:50.625Z,96597.27
2019-03-06T03:50:49.233Z,96603.86
2019-03-06T03:55:45.284Z,96608.13
2019-03-06T04:00:41.234Z,96606.91
2019-03-06T04:05:37.046Z,96596.03
2019-03-06T04:10:32.805Z,96596.19
2019-03-06T04:15:28.625Z,96599.71
2019-03-06T04:20:24.513Z,96607.68
2019-03-06T04:25:20.303Z,96605.88
2019-03-06T04:30:16.387Z,96607.69
2019-03-06T04:35:12.513Z,96598.86
2019-03-06T04:40:08.745Z,96606.48
2019-03-06T04:45:04.823Z,96599.64
2019-03-06T04:50:00.619Z,96599.64
2019-03-06T04:54:59.424Z,96611.06
2019-03-06T04:59:55.405Z,96616.33
2019-03-06T05:04:51.754Z,96604.14
2019-03-06T05:09:47.855Z,96567.04
2019-03-06T05:14:43.853Z,96568.58
2019-03-06T05:19:40.012Z,96569.24
2019-03-06T05:24:36.019Z,96564.44
2019-03-06T05:29:31.945Z,96576.71
2019-03-06T05:34:27.861Z,96568.42
2019-03-06T05:39:23.801Z,96580.02
2019-03-06T05:44:24.068Z,96569.17
2019-03-06T05:49:27.758Z,96570.34
2019-03-06T05:54:23.382Z,96543.75
2019-03-06T05:59:20.277Z,96550.96
2019-03-06T06:04:16.232Z,96544.62
2019-03-06T06:09:12.199Z,96556.55
2019-03-06T06:14:08.477Z,96550.67
2019-03-06T06:19:10.171Z,96556.44
2019-03-06T06:24:12.381Z,96561.30
2019-03-06T06:29:09.433Z,96549.67
2019-03-06T06:34:05.322Z,96551.01
2019-03-06T06:39:01.427Z,96543.05
2019-03-06T06:43:58.587Z,96548.50
2019-03-06T06:48:54.878Z,96537.91
2019-03-06T06:54:29.047Z,96536.08
2019-03-06T06:59:54.874Z,96535.15
2019-03-06T07:05:37.779Z,96514.17
2019-03-06T07:10:53.958Z,96515.98
2019-03-06T07:16:11.036Z,96518.70
2019-03-06T07:21:11.923Z,96517.33
2019-03-06T07:26:14.131Z,96508.11
2019-03-06T07:31:42.227Z,96511.55
2019-03-06T07:37:00.612Z,96498.16
2019-03-06T07:42:33.760Z,96497.97
2019-03-06T07:47:54.318Z,96510.20
2019-03-06T07:54:04.526Z,96497.45
2019-03-06T07:59:00.940Z,96501.36
2019-03-06T08:04:10.383Z,96483.47
2019-03-06T08:09:09.944Z,96479.09
2019-03-06T08:14:27.412Z,96475.00
2019-03-06T08:19:51.214Z,96470.04
2019-03-06T08:24:54.865Z,96468.34
2019-03-06T08:29:50.867Z,96467.00
2019-03-06T08:34:47.002Z,96456.24
2019-03-06T08:39:42.850Z,96442.03
2019-03-06T08:44:38.656Z,96446.52
2019-03-06T08:49:51.942Z,96432.53
2019-03-06T08:55:12.439Z,96429.92
2019-03-06T09:00:31.670Z,96412.29
2019-03-06T09:05:35.868Z,96398.98
2019-03-06T09:10:49.641Z,96389.97
2019-03-06T09:16:04.098Z,96387.13
2019-03-06T09:21:13.155Z,96379.29
2019-03-06T09:26:21.501Z,96373.22
2019-03-06T09:31:23.601Z,96373.22
2019-03-06T09:36:47.404Z,96361.77
2019-03-06T09:41:56.079Z,96351.14
2019-03-06T09:47:20.138Z,96347.55
2019-03-06T09:52:34.842Z,96334.36
2019-03-06T09:57:36.890Z,96322.50
2019-03-06T10:02:46.746Z,96331.66
2019-03-06T10:07:54.753Z,96329.07
2019-03-06T10:13:15.709Z,96313.63
2019-03-06T10:18:34.892Z,96304.70
2019-03-06T10:23:30.870Z,96287.22
2019-03-06T10:28:28.752Z,96283.96
2019-03-06T10:33:24.604Z,96271.28
2019-03-06T10:38:20.467Z,96279.15
2019-03-06T10:43:16.395Z,96268.23
2019-03-06T10:48:12.247Z,96264.31
2019-03-06T10:53:08.192Z,96255.17
2019-03-06T10:58:04.957Z,96246.13
2019-03-06T11:03:01.228Z,96238.53
2019-03-06T11:08:02.971Z,96229.97
2019-03-06T11:12:59.902Z,96213.13
2019-03-06T11:17:55.933Z,96206.78
2019-03-06T11:22:53.090Z,96196.59
2019-03-06T11:27:49.199Z,96182.33
2019-03-06T11:32:54.132Z,96174.63
2019-03-06T11:37:42.825Z,96165.42
2019-03-06T11:42:38.744Z,96154.70
2019-03-06T11:47:34.764Z,96146.69
2019-03-06T11:52:34.702Z,96129.19
2019-03-06T11:57:28.324Z,96112.64
2019-03-06T12:02:24.255Z,96107.73
2019-03-06T12:07:20.113Z,96087.78
2019-03-06T12:12:16.027Z,96068.78
2019-03-06T12:17:12.481Z,96059.53
2019-03-06T12:22:08.439Z,96048.88
2019-03-06T12:27:04.355Z,96037.16
2019-03-06T12:32:00.298Z,96025.14
2019-03-06T12:36:56.464Z,96028.05
2019-03-06T12:41:52.583Z,96013.16
2019-03-06T12:46:52.726Z,96008.84
2019-03-06T12:51:54.488Z,96008.01
2019-03-06T12:56:46.472Z,95992.99
2019-03-06T13:01:42.361Z,95980.51
2019-03-06T13:06:38.187Z,95978.52
2019-03-06T13:11:34.065Z,95967.34
2019-03-06T13:16:29.906Z,95956.55
2019-03-06T13:21:26.323Z,95948.69
2019-03-06T13:26:22.265Z,95937.75
2019-03-06T13:31:18.373Z,95935.51
2019-03-06T13:36:14.512Z,95940.49
2019-03-06T13:41:10.412Z,95940.20
2019-03-06T13:46:06.549Z,95930.28
2019-03-06T13:51:02.420Z,95925.37
2019-03-06T13:55:58.360Z,95913.80
2019-03-06T14:00:54.257Z,95909.52
2019-03-06T14:05:50.298Z,95913.48
2019-03-06T14:10:46.428Z,95911.11
2019-03-06T14:15:42.228Z,95907.78
2019-03-06T14:20:38.204Z,95905.58
2019-03-06T14:25:34.681Z,95918.13
2019-03-06T14:30:30.599Z,95894.35
2019-03-06T14:35:27.420Z,95904.66
2019-03-06T14:40:28.973Z,95907.27
2019-03-06T14:45:24.917Z,95906.93
2019-03-06T14:50:24.202Z,95892.04
2019-03-06T14:55:20.712Z,95891.59
2019-03-06T15:00:19.191Z,95881.67
2019-03-06T15:05:16.385Z,95881.38
2019-03-06T15:10:14.306Z,95886.19
2019-03-06T15:15:13.035Z,95883.69
2019-03-06T15:20:11.917Z,95883.36
2019-03-06T15:25:13.425Z,95860.36
2019-03-06T15:30:11.408Z,95870.20
2019-03-06T15:35:08.389Z,95872.02
2019-03-06T15:40:04.939Z,95864.87
2019-03-06T15:45:00.908Z,95858.50
2019-03-06T15:49:56.826Z,95842.50
2019-03-06T15:55:00.831Z,95834.09
2019-03-06T15:59:56.699Z,95844.91
2019-03-06T16:04:52.674Z,95833.11
2019-03-06T16:09:48.815Z,95839.97
2019-03-06T16:14:46.155Z,95841.73
2019-03-06T16:19:42.092Z,95853.80
2019-03-06T16:24:38.326Z,95840.01
2019-03-06T16:29:34.192Z,95833.83
2019-03-06T16:34:30.102Z,95831.48
2019-03-06T16:39:26.123Z,95828.27
2019-03-06T16:44:22.078Z,95835.75
2019-03-06T16:49:18.001Z,95826.24
2019-03-06T16:54:14.213Z,95839.95
2019-03-06T16:59:10.354Z,95854.59
2019-03-06T17:04:07.957Z,95853.20
2019-03-06T17:09:04.411Z,95846.16
2019-03-06T17:14:02.351Z,95838.80
2019-03-06T17:18:58.251Z,95821.55
2019-03-06T17:23:54.122Z,95796.33
2019-03-06T17:28:49.981Z,95773.42
2019-03-06T17:33:45.937Z,95758.48
2019-03-06T17:38:41.874Z,95772.44
2019-03-06T17:43:37.970Z,95759.84
2019-03-06T17:48:35.815Z,95747.18
2019-03-06T17:53:31.637Z,95747.47
2019-03-06T17:58:27.817Z,95765.11
2019-03-06T18:04:00.851Z,95757.87
2019-03-06T18:08:56.894Z,95759.09
2019-03-06T18:13:52.760Z,95756.00
2019-03-06T18:18:48.652Z,95760.02
2019-03-06T18:23:44.497Z,95741.39
2019-03-06T18:28:40.365Z,95723.98
2019-03-06T18:33:36.238Z,95716.98
2019-03-06T18:38:32.133Z,95722.61
2019-03-06T18:43:30.865Z,95727.52
2019-03-06T18:48:26.787Z,95720.91
2019-03-06T18:53:22.627Z,95709.48
2019-03-06T18:58:18.523Z,95709.28
2019-03-06T19:03:16.431Z,95699.82
2019-03-06T19:08:12.146Z,95697.42
2019-03-06T19:13:14.228Z,95686.13
2019-03-06T19:18:10.237Z,95672.91
2019-03-06T19:23:07.715Z,95663.28
2019-03-06T19:28:04.643Z,95664.44
2019-03-06T19:33:02.208Z,95657.85
2019-03-06T19:38:00.993Z,95652.59
2019-03-06T19:43:00.583Z,95647.68
2019-03-06T19:47:55.809Z,95646.38
2019-03-06T19:52:52.190Z,95646.42
2019-03-06T19:58:00.071Z,95639.70
2019-03-06T20:02:56.467Z,95637.09
2019-03-06T20:07:53.424Z,95628.55
2019-03-06T20:12:49.614Z,95623.12
2019-03-06T20:17:46.708Z,95633.21
2019-03-06T20:22:42.699Z,95632.47
2019-03-06T20:27:38.810Z,95623.06
2019-03-06T20:32:34.732Z,95606.59
2019-03-06T20:37:30.757Z,95602.00
2019-03-06T20:42:26.692Z,95582.55
2019-03-06T20:47:22.857Z,95585.12
2019-03-06T20:52:19.023Z,95581.69
2019-03-06T20:57:19.694Z,95578.18
2019-03-06T21:02:16.103Z,95571.84
2019-03-06T21:07:13.714Z,95570.20
2019-03-06T21:12:09.948Z,95539.02
2019-03-06T21:17:06.256Z,95549.93
2019-03-06T21:22:07.184Z,95534.48
2019-03-06T21:32:14.915Z,95528.20
2019-03-06T21:37:13.315Z,95510.83
2019-03-06T21:42:09.304Z,95520.19
2019-03-06T21:47:05.374Z,95531.00
2019-03-06T21:52:02.188Z,95552.67
2019-03-06T21:57:00.192Z,95542.99
2019-03-06T22:01:56.060Z,95553.59
2019-03-06T22:06:52.173Z,95541.73
2019-03-06T22:11:48.387Z,95505.77
2019-03-06T22:16:44.434Z,95493.23
2019-03-06T22:21:40.446Z,95508.98
2019-03-06T22:26:36.676Z,95517.16
2019-03-06T22:31:32.711Z,95517.30
2019-03-06T22:36:28.743Z,95514.92
2019-03-06T22:41:24.715Z,95521.78
2019-03-06T22:46:20.568Z,95532.39
2019-03-06T22:51:16.446Z,95504.13
2019-03-06T22:56:12.327Z,95505.34
2019-03-06T23:01:30.196Z,95504.87
2019-03-06T23:06:26.487Z,95501.47
2019-03-06T23:11:22.925Z,95504.06
2019-03-06T23:16:18.942Z,95497.06
2019-03-06T23:21:14.757Z,95495.41
2019-03-06T23:26:10.603Z,95498.05
2019-03-06T23:31:06.506Z,95496.15
2019-03-06T23:36:02.324Z,95483.89
2019-03-06T23:40:58.418Z,95456.70
2019-03-06T23:45:54.426Z,95447.52
2019-03-06T23:50:50.323Z,95441.50
2019-03-06T23:55:46.205Z,95444.09
